Time;durP1;ratioP1;P1;durP2;ratioP2;P2;SDS_P1;SDS_P2;PMS_P1;PMS_P2;Temp;Humidity;BMP_temperature;BMP_pressure;BME280_temperature;BME280_humidity;BME280_pressure;Samples;Min_cycle;Max_cycle;Signal;HPM_P1;HPM_P2
2022/09/20 00:00:48;;;;;;;8.45;5.28;;;;;;;18.33;51.01;93465.63;5074154;28;20039;-87
2022/09/20 00:03:13;;;;;;;9.35;5.65;;;;;;;18.35;50.87;93447.44;5069704;28;20407;-84
2022/09/20 00:05:41;;;;;;;10.13;5.47;;;;;;;18.31;51.08;93460.66;5071535;28;20399;-83
2022/09/20 00:08:09;;;;;;;7.65;5.50;;;;;;;18.35;51.44;93465.84;5071063;28;20036;-84
2022/09/20 00:10:38;;;;;;;8.65;4.45;;;;;;;18.31;51.13;93470.84;5062200;28;20028;-83
2022/09/20 00:13:04;;;;;;;6.50;4.47;;;;;;;18.31;51.13;93462.66;5048275;28;20075;-82
2022/09/20 00:15:30;;;;;;;9.18;5.18;;;;;;;18.31;51.15;93457.16;5034461;28;20515;-83
2022/09/20 00:17:56;;;;;;;7.13;5.15;;;;;;;18.31;51.20;93462.66;5077354;28;20045;-83
2022/09/20 00:20:22;;;;;;;6.97;4.80;;;;;;;18.35;51.12;93465.84;5067141;28;20036;-84
2022/09/20 00:22:48;;;;;;;7.50;5.13;;;;;;;18.30;51.04;93459.16;5077143;28;20067;-83
2022/09/20 00:25:17;;;;;;;8.15;5.38;;;;;;;18.31;50.85;93462.66;5052722;28;20072;-83
2022/09/20 00:27:44;;;;;;;9.15;4.68;;;;;;;18.34;51.33;93469.84;5082166;28;20043;-83
2022/09/20 00:30:10;;;;;;;7.72;4.68;;;;;;;18.32;51.14;93469.59;5086412;28;20051;-83
2022/09/20 00:32:35;;;;;;;8.65;4.68;;;;;;;18.29;51.31;93465.88;5068078;28;20044;-83
2022/09/20 00:35:07;;;;;;;6.20;4.35;;;;;;;18.28;51.00;93460.91;5083426;28;20145;-84
2022/09/20 00:37:34;;;;;;;7.70;4.85;;;;;;;18.27;51.03;93462.91;5107443;28;20169;-84
2022/09/20 00:40:01;;;;;;;7.72;4.35;;;;;;;18.29;51.29;93468.63;5108308;28;20040;-85
2022/09/20 00:42:27;;;;;;;8.77;4.47;;;;;;;18.31;51.20;93466.13;5066867;28;20047;-87
2022/09/20 00:45:02;;;;;;;7.10;4.20;;;;;;;18.30;51.14;93464.63;5067625;28;20116;-83
2022/09/20 00:47:34;;;;;;;10.90;5.38;;;;;;;18.31;50.78;93466.13;5084751;28;20040;-83
2022/09/20 00:50:25;;;;;;;5.35;4.22;;;;;;;18.34;51.30;93469.84;5061329;28;20059;-83
2022/09/20 00:52:57;;;;;;;6.85;4.85;;;;;;;18.34;51.15;93464.38;5087606;28;20036;-82
2022/09/20 00:55:22;;;;;;;6.88;3.80;;;;;;;18.31;51.29;93460.66;5054096;28;20118;-83
2022/09/20 00:57:48;;;;;;;7.30;4.63;;;;;;;18.31;51.17;93460.66;5066850;28;20063;-83
2022/09/20 01:00:16;;;;;;;6.80;4.18;;;;;;;18.30;50.89;93463.91;5085756;28;20612;-85
2022/09/20 01:02:45;;;;;;;7.53;3.72;;;;;;;18.29;51.22;93468.63;5103778;28;20486;-84
2022/09/20 01:05:10;;;;;;;6.07;3.72;;;;;;;18.28;50.70;93463.66;5086407;28;20395;-83
2022/09/20 01:07:35;;;;;;;6.25;3.70;;;;;;;18.32;51.14;93472.34;5087130;28;20036;-82
2022/09/20 01:10:01;;;;;;;6.28;3.90;;;;;;;18.30;51.25;93455.69;5086197;28;20035;-88
2022/09/20 01:12:28;;;;;;;4.47;3.40;;;;;;;18.27;50.93;93468.38;5086568;28;20040;-87
2022/09/20 01:14:54;;;;;;;5.55;3.53;;;;;;;18.27;50.73;93462.16;5104470;28;20039;-83
2022/09/20 01:17:21;;;;;;;7.00;4.20;;;;;;;18.29;51.00;93460.41;5103140;28;20035;-83
2022/09/20 01:19:59;;;;;;;6.28;3.53;;;;;;;18.28;51.47;93463.66;5086613;28;20044;-82
2022/09/20 01:22:49;;;;;;;5.18;3.30;;;;;;;18.28;51.18;93461.66;5085921;28;20046;-83
2022/09/20 01:25:35;;;;;;;5.70;3.83;;;;;;;18.28;50.95;93461.66;5085874;28;20426;-83
2022/09/20 01:28:00;;;;;;;6.50;4.10;;;;;;;18.29;51.31;93462.41;5086913;28;20032;-83
2022/09/20 01:30:31;;;;;;;4.53;3.10;;;;;;;18.28;51.38;93464.41;5087600;28;20032;-83
2022/09/20 01:33:15;;;;;;;6.28;3.67;;;;;;;18.27;51.10;93451.97;5086227;28;20028;-83
2022/09/20 01:35:41;;;;;;;5.15;3.50;;;;;;;18.29;51.39;93467.88;5085801;28;20032;-83
2022/09/20 01:38:21;;;;;;;5.57;3.55;;;;;;;18.28;51.24;93463.66;5085933;28;20036;-83
2022/09/20 01:40:55;;;;;;;4.55;3.35;;;;;;;18.31;50.88;93455.19;5069992;28;20039;-83
2022/09/20 01:43:26;;;;;;;5.00;3.78;;;;;;;18.27;51.19;93453.97;5068731;28;20039;-83
2022/09/20 01:45:51;;;;;;;6.85;3.50;;;;;;;18.28;51.09;93452.72;5087126;28;20390;-83
2022/09/20 01:48:37;;;;;;;5.15;3.28;;;;;;;18.29;51.31;93449.47;5086682;28;20048;-83
2022/09/20 01:51:23;;;;;;;5.57;3.03;;;;;;;18.28;51.39;93458.94;5068997;28;20456;-82
2022/09/20 01:54:11;;;;;;;4.00;2.92;;;;;;;18.28;51.36;93460.91;5085774;28;20032;-83
2022/09/20 01:57:13;;;;;;;5.50;3.40;;;;;;;18.26;51.44;93457.94;5087486;28;20520;-87
2022/09/20 01:59:57;;;;;;;4.40;3.17;;;;;;;18.26;51.27;93457.94;5077815;28;20052;-84
2022/09/20 02:02:35;;;;;;;4.25;3.08;;;;;;;18.25;51.13;93459.19;5085985;28;20028;-83
2022/09/20 02:05:35;;;;;;;5.57;3.20;;;;;;;18.28;51.32;93467.13;5092173;28;20036;-83
2022/09/20 02:08:08;;;;;;;6.38;3.17;;;;;;;18.26;51.14;93461.44;5071591;28;20040;-83
2022/09/20 02:10:48;;;;;;;3.28;2.60;;;;;;;18.23;51.03;93458.97;5067587;28;20036;-83
2022/09/20 02:13:34;;;;;;;4.50;3.58;;;;;;;18.27;51.30;93459.44;5087028;28;20584;-84
2022/09/20 02:16:28;;;;;;;4.97;3.15;;;;;;;18.27;51.40;93454.72;5087708;28;20040;-83
2022/09/20 02:19:02;;;;;;;3.50;2.53;;;;;;;18.24;50.88;93455.72;5083269;28;20035;-87
2022/09/20 02:21:55;;;;;;;4.50;3.30;;;;;;;18.25;51.01;93457.22;5067388;28;20032;-83
2022/09/20 02:24:51;;;;;;;4.00;2.83;;;;;;;18.22;51.10;93450.00;5083723;28;20438;-83
2022/09/20 02:27:21;;;;;;;4.72;3.20;;;;;;;18.27;51.21;93454.72;5086222;28;20040;-83
2022/09/20 02:29:55;;;;;;;4.70;2.70;;;;;;;18.27;51.42;93445.75;5069072;28;20078;-83
2022/09/20 02:32:44;;;;;;;3.85;2.80;;;;;;;18.24;51.45;93449.50;5084656;28;20052;-84
2022/09/20 02:35:18;;;;;;;3.72;2.70;;;;;;;18.23;51.28;93451.50;5084744;28;20059;-83
2022/09/20 02:38:06;;;;;;;4.20;3.08;;;;;;;18.28;51.21;93447.25;5085911;28;20020;-83
2022/09/20 02:40:53;;;;;;;3.85;2.88;;;;;;;18.27;51.23;93449.22;5084816;28;20093;-83
2022/09/20 02:43:39;;;;;;;5.53;2.90;;;;;;;18.26;51.23;93453.22;5085184;28;20044;-83
2022/09/20 02:46:08;;;;;;;4.50;2.53;;;;;;;18.25;51.11;93445.53;5085317;28;20402;-87
2022/09/20 02:48:55;;;;;;;4.22;2.75;;;;;;;18.23;51.39;93450.75;5085334;28;20044;-86
2022/09/20 02:51:25;;;;;;;5.13;3.05;;;;;;;18.23;51.28;93451.50;5083951;28;20584;-83
2022/09/20 02:53:57;;;;;;;4.82;2.90;;;;;;;18.23;51.28;93454.22;5068884;28;20501;-83
2022/09/20 02:56:57;;;;;;;4.15;3.00;;;;;;;18.26;51.08;93452.47;5085141;28;20463;-83
2022/09/20 02:59:34;;;;;;;2.90;2.20;;;;;;;18.26;51.18;93452.47;5084203;28;20043;-87
2022/09/20 03:02:07;;;;;;;4.97;2.30;;;;;;;18.23;51.37;93453.50;5069008;28;20478;-83
2022/09/20 03:04:45;;;;;;;2.30;2.10;;;;;;;18.23;51.37;93456.22;5084693;28;20394;-86
2022/09/20 03:07:19;;;;;;;3.83;2.13;;;;;;;18.22;51.10;93465.69;5066302;28;20418;-83
2022/09/20 03:09:57;;;;;;;4.22;2.67;;;;;;;18.21;51.35;93462.19;5065385;28;20070;-83
2022/09/20 03:12:39;;;;;;;3.92;2.60;;;;;;;18.20;51.02;93465.44;5079470;28;20394;-83
2022/09/20 03:15:25;;;;;;;3.38;2.30;;;;;;;18.21;51.10;93461.47;5064223;28;20187;-83
2022/09/20 03:18:07;;;;;;;2.97;2.30;;;;;;;18.22;51.24;93473.88;5083979;28;20064;-83
2022/09/20 03:20:55;;;;;;;3.17;2.30;;;;;;;18.23;51.35;93456.22;5091144;28;20062;-86
2022/09/20 03:23:48;;;;;;;4.18;2.03;;;;;;;18.21;51.36;93473.16;5070648;28;20051;-83
2022/09/20 03:26:41;;;;;;;3.63;2.15;;;;;;;18.24;51.35;93465.91;5089917;28;20127;-82
2022/09/20 03:29:14;;;;;;;3.35;2.25;;;;;;;18.21;51.43;93473.16;5089805;28;20524;-83
2022/09/20 03:32:12;;;;;;;3.22;2.25;;;;;;;18.22;51.44;93462.94;5072938;28;20738;-86
2022/09/20 03:35:17;;;;;;;4.32;2.58;;;;;;;18.23;51.52;93464.44;5090039;28;20368;-82
2022/09/20 03:37:57;;;;;;;3.17;2.20;;;;;;;18.24;51.14;93468.66;5054435;28;20040;-88
2022/09/20 03:40:32;;;;;;;2.77;2.03;;;;;;;18.20;51.46;93468.94;5052252;28;20040;-83
2022/09/20 03:43:11;;;;;;;4.22;2.33;;;;;;;18.20;51.22;93468.19;5069185;28;20605;-83
2022/09/20 03:45:47;;;;;;;3.88;2.17;;;;;;;18.20;51.37;93468.94;5060084;28;20032;-86
2022/09/20 03:48:35;;;;;;;5.25;2.65;;;;;;;18.21;51.42;93469.66;5097751;27;20032;-82
2022/09/20 03:51:39;;;;;;;4.18;3.00;;;;;;;18.21;51.50;93472.41;5104880;28;20032;-82
2022/09/20 03:54:23;;;;;;;3.30;2.25;;;;;;;18.23;51.54;93478.84;5067525;28;20041;-86
2022/09/20 03:56:48;;;;;;;2.70;1.92;;;;;;;18.27;51.14;93473.88;5070064;28;20518;-86
2022/09/20 03:59:39;;;;;;;3.30;1.85;;;;;;;18.28;51.21;93475.34;5072313;27;20033;-82
2022/09/20 04:02:15;;;;;;;4.57;2.60;;;;;;;18.22;50.00;93471.91;5109739;27;20077;-82
2022/09/20 04:05:14;;;;;;;3.35;2.05;;;;;;;18.21;50.75;93466.94;5080552;28;20040;-83
2022/09/20 04:07:39;;;;;;;5.28;2.15;;;;;;;18.21;50.70;93469.66;5068194;28;20047;-83
2022/09/20 04:10:25;;;;;;;6.70;2.58;;;;;;;18.22;50.60;93469.16;5069118;28;20127;-83
2022/09/20 04:13:10;;;;;;;3.83;2.28;;;;;;;18.22;50.76;93462.94;5098320;28;20115;-83
2022/09/20 04:15:43;;;;;;;3.45;2.40;;;;;;;18.22;50.91;93462.94;5065247;28;20692;-87
2022/09/20 04:18:23;;;;;;;8.93;2.60;;;;;;;18.24;51.10;93465.91;5072507;28;20038;-83
2022/09/20 04:20:54;;;;;;;4.53;2.05;;;;;;;18.21;51.09;93469.66;5105974;28;20123;-83
2022/09/20 04:23:31;;;;;;;6.25;2.13;;;;;;;18.22;51.14;93474.63;5070494;28;20064;-85
2022/09/20 04:25:57;;;;;;;3.85;2.15;;;;;;;18.19;51.23;93470.19;5088895;28;20064;-82
2022/09/20 04:28:42;;;;;;;6.95;2.33;;;;;;;18.23;50.87;93467.91;5070896;28;20047;-86
2022/09/20 04:31:16;;;;;;;3.55;1.90;;;;;;;18.26;51.25;93477.84;5071658;28;20127;-83
2022/09/20 04:33:42;;;;;;;5.40;2.00;;;;;;;18.25;51.06;93473.63;5071058;28;20058;-82
2022/09/20 04:36:31;;;;;;;3.40;2.53;;;;;;;18.25;51.00;93483.81;5069973;28;20040;-83
2022/09/20 04:39:33;;;;;;;14.35;6.28;;;;;;;18.28;51.35;93491.78;5081648;28;20052;-83
2022/09/20 04:42:20;;;;;;;58.15;36.35;;;;;;;18.33;51.81;93493.72;5087860;28;20566;-85
2022/09/20 04:44:51;;;;;;;102.00;58.47;;;;;;;18.36;51.66;93489.97;5079148;28;20036;-84
2022/09/20 04:47:44;;;;;;;140.77;73.70;;;;;;;18.37;51.23;93490.72;5070251;28;20732;-85
2022/09/20 04:50:18;;;;;;;89.57;47.30;;;;;;;18.39;51.24;93493.69;5084362;28;20126;-86
2022/09/20 04:53:02;;;;;;;127.07;58.40;;;;;;;18.35;51.05;93490.47;5075416;28;20146;-86
2022/09/20 04:56:04;;;;;;;121.97;60.13;;;;;;;18.35;51.37;93482.28;5067498;28;20036;-85
2022/09/20 04:58:41;;;;;;;120.03;43.15;;;;;;;18.25;49.70;93484.56;5107608;27;20588;-85
2022/09/20 05:01:18;;;;;;;131.55;47.75;;;;;;;18.22;50.32;93484.84;5062415;28;20028;-86
2022/09/20 05:04:21;;;;;;;173.27;61.22;;;;;;;18.26;50.29;93493.53;5066589;28;20047;-86
2022/09/20 05:07:24;;;;;;;173.00;61.72;;;;;;;18.26;50.29;93494.25;5078237;28;20036;-85
2022/09/20 05:10:09;;;;;;;168.80;77.80;;;;;;;18.25;50.40;93495.50;5060632;28;20051;-85
2022/09/20 05:12:56;;;;;;;162.85;65.57;;;;;;;18.28;50.43;93496.50;5073104;28;20042;-87
2022/09/20 05:16:00;;;;;;;148.98;66.95;;;;;;;18.26;50.39;93491.53;5024682;28;20036;-87
2022/09/20 05:18:33;;;;;;;156.43;70.63;;;;;;;18.25;50.99;93498.25;5073153;28;20040;-87
2022/09/20 05:21:33;;;;;;;159.82;70.82;;;;;;;18.25;50.67;93503.72;5076411;28;20057;-85
2022/09/20 05:24:07;;;;;;;141.88;68.05;;;;;;;18.29;51.15;93504.19;5063460;28;20466;-89
2022/09/20 05:26:41;;;;;;;158.95;68.85;;;;;;;18.29;51.02;93498.72;5044760;28;20039;-86
2022/09/20 05:29:16;;;;;;;151.27;72.93;;;;;;;18.30;50.57;93505.69;5037036;28;20062;-88
2022/09/20 05:32:09;;;;;;;168.60;79.35;;;;;;;18.31;50.94;93509.91;5030038;28;20087;-85
2022/09/20 05:34:53;;;;;;;152.35;72.78;;;;;;;18.30;50.67;93513.16;5047484;28;20036;-85
2022/09/20 05:37:32;;;;;;;164.50;70.20;;;;;;;18.31;50.68;93512.66;5070648;28;20093;-86
2022/09/20 05:40:27;;;;;;;161.10;68.05;;;;;;;18.30;50.64;93522.09;5048035;28;20197;-86
2022/09/20 05:43:01;;;;;;;248.27;89.70;;;;;;;18.31;50.83;93520.84;5051550;28;20040;-87
2022/09/20 05:45:32;;;;;;;216.27;90.25;;;;;;;18.34;51.11;93522.59;5057306;28;20093;-85
2022/09/20 05:48:07;;;;;;;189.45;89.22;;;;;;;18.34;50.78;93522.59;5061395;28;20041;-87
2022/09/20 05:50:57;;;;;;;201.50;96.00;;;;;;;18.34;51.16;93517.13;5059996;28;20383;-86
2022/09/20 05:53:28;;;;;;;195.55;87.68;;;;;;;18.33;50.90;93514.88;5033937;28;20044;-85
2022/09/20 05:56:21;;;;;;;243.93;115.18;;;;;;;18.36;50.96;93527.56;5065373;28;20661;-85
2022/09/20 05:59:20;;;;;;;221.30;105.10;;;;;;;18.36;50.71;93533.03;5048562;28;20116;-86
2022/09/20 06:02:14;;;;;;;240.15;111.47;;;;;;;18.40;50.55;93539.69;5077371;28;20044;-85
2022/09/20 06:05:13;;;;;;;221.73;105.53;;;;;;;18.39;51.04;93537.50;5083570;28;20419;-86
2022/09/20 06:08:09;;;;;;;213.07;100.63;;;;;;;18.40;51.03;93526.00;5077444;28;20101;-84
2022/09/20 06:10:49;;;;;;;183.10;93.78;;;;;;;18.44;50.94;93523.75;5065135;28;20040;-87
2022/09/20 06:13:32;;;;;;;179.10;92.78;;;;;;;18.46;50.69;93523.25;5048962;28;20047;-87
2022/09/20 06:16:03;;;;;;;173.05;92.07;;;;;;;18.49;50.86;93522.22;5067698;28;20127;-86
2022/09/20 06:18:54;;;;;;;190.73;97.97;;;;;;;18.53;51.12;93522.69;5063064;28;20841;-90
2022/09/20 06:21:32;;;;;;;205.73;97.22;;;;;;;18.52;50.58;93520.47;5057887;28;20123;-86
2022/09/20 06:23:59;;;;;;;141.20;80.30;;;;;;;18.53;50.73;93522.69;5046099;28;20036;-86
2022/09/20 06:26:26;;;;;;;161.75;85.43;;;;;;;18.52;50.98;93513.00;5025809;28;20039;-86
2022/09/20 06:28:58;;;;;;;153.13;79.30;;;;;;;18.49;50.64;93525.72;5057589;28;20514;-87
2022/09/20 06:31:24;;;;;;;145.50;82.05;;;;;;;18.50;50.95;93529.19;5080245;28;20047;-86
2022/09/20 06:33:55;;;;;;;155.38;87.63;;;;;;;18.52;50.50;93534.91;5049857;28;20028;-86
2022/09/20 06:42:16;;;;;;;151.00;78.47;;;;;;;18.53;50.69;93538.38;5069164;28;20071;-86
2022/09/20 06:44:42;;;;;;;154.85;72.85;;;;;;;18.52;50.69;93531.41;5065430;28;20476;-86
2022/09/20 06:47:09;;;;;;;150.05;76.10;;;;;;;18.51;50.62;93525.19;5045742;28;20033;-87
2022/09/20 06:49:35;;;;;;;169.45;81.63;;;;;;;18.54;50.88;93537.13;5080376;28;20109;-87
2022/09/20 06:52:03;;;;;;;189.07;78.50;;;;;;;18.50;50.71;93538.16;5040562;28;20028;-86
2022/09/20 06:54:29;;;;;;;157.68;71.68;;;;;;;18.49;50.47;93536.66;5043517;28;20499;-86
2022/09/20 06:56:54;;;;;;;142.60;67.80;;;;;;;18.49;51.16;93544.13;5071346;28;20038;-86
2022/09/20 06:59:20;;;;;;;136.40;64.07;;;;;;;18.49;50.91;93542.13;5072386;28;20040;-86
2022/09/20 07:01:46;;;;;;;121.63;59.78;;;;;;;18.50;51.16;93540.13;5054251;28;20120;-86
2022/09/20 07:04:11;;;;;;;120.13;62.50;;;;;;;18.50;51.00;93540.13;5044459;28;20032;-87
2022/09/20 07:06:37;;;;;;;126.30;62.72;;;;;;;18.54;51.09;93542.59;5052595;28;20033;-86
2022/09/20 07:09:03;;;;;;;114.00;61.55;;;;;;;18.54;51.00;93543.34;5047129;28;20177;-86
2022/09/20 07:11:30;;;;;;;120.28;58.30;;;;;;;18.50;51.18;93542.88;5066858;28;20036;-87
2022/09/20 07:13:57;;;;;;;130.95;56.70;;;;;;;18.50;50.93;93548.34;5063066;28;20086;-85
2022/09/20 07:16:22;;;;;;;116.22;57.38;;;;;;;18.52;50.70;93543.13;5054835;28;20050;-86
2022/09/20 07:18:48;;;;;;;114.45;57.60;;;;;;;18.50;50.96;93562.78;5049803;28;20033;-86
2022/09/20 07:21:15;;;;;;;107.05;57.13;;;;;;;18.52;51.08;93556.06;5092266;27;20027;-85
2022/09/20 07:23:40;;;;;;;114.07;58.42;;;;;;;18.50;51.09;93583.94;5052662;28;20036;-85
2022/09/20 07:26:06;;;;;;;95.85;52.05;;;;;;;18.50;50.93;93581.19;5047464;28;20066;-86
2022/09/20 07:28:32;;;;;;;110.80;60.00;;;;;;;18.52;51.09;93580.69;5060408;28;20406;-85
2022/09/20 07:30:58;;;;;;;109.93;53.05;;;;;;;18.49;51.35;93569.50;5079207;28;20032;-86
2022/09/20 07:33:24;;;;;;;119.53;55.22;;;;;;;18.49;51.08;93564.03;5068044;28;20036;-86
2022/09/20 07:35:53;;;;;;;110.78;55.00;;;;;;;18.47;50.73;93560.31;5073275;28;20046;-87
2022/09/20 07:38:19;;;;;;;103.03;51.00;;;;;;;18.52;51.04;93561.53;5077080;28;20032;-87
2022/09/20 07:40:45;;;;;;;103.13;52.92;;;;;;;18.49;51.09;93566.78;5089585;28;20062;-86
2022/09/20 07:43:11;;;;;;;98.50;50.95;;;;;;;18.48;50.96;93568.03;5089166;28;20470;-86
2022/09/20 07:45:38;;;;;;;103.43;51.20;;;;;;;18.52;51.24;93573.22;5089402;28;20028;-87
2022/09/20 07:48:06;;;;;;;102.28;49.95;;;;;;;18.53;50.78;93571.22;5088326;28;20117;-87
2022/09/20 07:50:32;;;;;;;93.18;46.28;;;;;;;18.52;51.83;93561.53;5067761;28;20039;-87
2022/09/20 07:52:57;;;;;;;80.25;40.72;;;;;;;18.53;50.96;93565.75;5081011;28;20036;-86
2022/09/20 07:55:23;;;;;;;79.03;41.17;;;;;;;18.49;51.16;93571.50;5071310;28;20058;-86
2022/09/20 07:57:50;;;;;;;79.78;41.95;;;;;;;18.51;51.08;93577.22;5050640;28;20036;-86
2022/09/20 08:00:15;;;;;;;90.25;44.05;;;;;;;18.53;51.14;93571.22;5090944;28;20051;-85
2022/09/20 08:02:41;;;;;;;82.35;41.60;;;;;;;18.52;50.74;93572.47;5060752;28;20036;-85
2022/09/20 08:05:07;;;;;;;79.55;41.38;;;;;;;18.55;50.92;93576.94;5061318;28;20408;-84
2022/09/20 08:07:32;;;;;;;114.03;46.35;;;;;;;18.55;50.89;93582.41;5068437;28;20090;-85
2022/09/20 08:09:58;;;;;;;80.03;41.03;;;;;;;18.54;51.07;93581.69;5078123;28;20040;-85
2022/09/20 08:12:25;;;;;;;80.78;40.15;;;;;;;18.55;51.29;93576.94;5075483;28;20042;-85
2022/09/20 08:14:51;;;;;;;86.88;41.30;;;;;;;18.57;51.25;93577.94;5054619;28;20040;-86
2022/09/20 08:17:17;;;;;;;94.63;47.35;;;;;;;18.56;51.02;93586.66;5056321;28;20512;-85
2022/09/20 08:19:43;;;;;;;93.90;46.40;;;;;;;18.58;50.94;93570.47;5074885;28;20040;-85
2022/09/20 08:22:10;;;;;;;107.85;57.78;;;;;;;18.61;51.00;93585.91;5082030;28;20143;-85
2022/09/20 08:24:36;;;;;;;113.75;54.92;;;;;;;18.58;51.27;93582.16;5050944;28;20045;-85
2022/09/20 08:27:01;;;;;;;100.90;57.58;;;;;;;18.58;51.19;93586.88;5061021;28;20039;-85
2022/09/20 08:29:27;;;;;;;108.03;56.38;;;;;;;18.58;50.92;93581.41;5087805;28;20028;-85
2022/09/20 08:31:56;;;;;;;115.65;58.25;;;;;;;18.58;51.46;93587.63;5088534;28;20036;-86
2022/09/20 08:34:22;;;;;;;119.03;56.72;;;;;;;18.57;51.25;93580.66;5070809;28;20032;-86
2022/09/20 08:36:50;;;;;;;107.60;57.70;;;;;;;18.58;51.18;93595.84;5053354;28;20435;-86
2022/09/20 08:39:16;;;;;;;111.18;57.15;;;;;;;18.61;50.95;93591.38;5063859;28;20411;-87
2022/09/20 08:41:43;;;;;;;109.28;61.03;;;;;;;18.58;51.37;93582.16;5034951;28;20127;-87
2022/09/20 08:44:24;;;;;;;123.22;66.80;;;;;;;18.61;51.22;93577.69;5092869;28;20033;-87
2022/09/20 08:46:51;;;;;;;157.35;87.10;;;;;;;18.64;51.26;93574.66;5050819;28;20040;-87
2022/09/20 08:49:25;;;;;;;149.60;80.88;;;;;;;18.62;51.24;93579.19;5068543;28;20047;-85
2022/09/20 08:51:51;;;;;;;164.60;92.25;;;;;;;18.62;51.42;93582.63;5049563;28;20120;-87
2022/09/20 08:54:16;;;;;;;169.23;91.80;;;;;;;18.63;51.17;93564.22;5067757;28;20064;-87
2022/09/20 08:56:44;;;;;;;182.65;94.88;;;;;;;18.68;51.11;93574.38;5041801;28;20047;-86
2022/09/20 08:59:14;;;;;;;170.27;93.85;;;;;;;18.63;51.46;93562.22;5051001;28;20122;-86
2022/09/20 09:01:40;;;;;;;164.30;92.97;;;;;;;18.65;51.37;93559.72;5055644;28;20028;-87
2022/09/20 09:04:22;;;;;;;183.15;100.05;;;;;;;18.64;51.28;93576.66;5046765;28;20136;-85
2022/09/20 09:06:48;;;;;;;162.95;96.43;;;;;;;18.63;51.31;93581.38;5095882;28;20390;-86
2022/09/20 09:09:18;;;;;;;173.80;100.15;;;;;;;18.66;51.07;93572.16;5049242;28;20040;-86
2022/09/20 09:11:46;;;;;;;164.13;93.10;;;;;;;18.66;51.35;93571.41;5042299;28;20044;-87
2022/09/20 09:17:16;;;;;;;177.80;96.93;;;;;;;18.68;51.34;93574.38;5062014;28;20128;-87
2022/09/20 09:19:43;;;;;;;164.67;92.77;;;;;;;18.68;51.60;93583.34;5041373;28;20045;-86
2022/09/20 09:22:08;;;;;;;177.63;98.25;;;;;;;18.71;50.89;93573.38;5077523;28;20147;-87
2022/09/20 09:24:34;;;;;;;168.73;91.57;;;;;;;18.70;51.36;93583.59;5069880;28;20058;-86
2022/09/20 09:27:13;;;;;;;158.75;85.45;;;;;;;18.68;51.52;93580.59;5079722;28;20090;-87
2022/09/20 09:29:48;;;;;;;167.65;88.45;;;;;;;18.69;51.25;93571.16;5068255;28;20115;-86
2022/09/20 09:32:22;;;;;;;152.57;86.00;;;;;;;18.70;51.28;93567.16;5087510;28;20043;-88
2022/09/20 09:34:48;;;;;;;160.00;86.60;;;;;;;18.70;51.50;93569.91;5071408;28;20109;-87
2022/09/20 09:37:27;;;;;;;154.23;84.05;;;;;;;18.70;51.49;93569.16;5064033;28;20052;-87
2022/09/20 09:40:06;;;;;;;171.60;89.32;;;;;;;18.72;51.48;93569.38;5040442;28;20621;-86
2022/09/20 09:42:32;;;;;;;145.02;80.22;;;;;;;18.69;51.43;93565.66;5087427;28;20123;-88
2022/09/20 09:45:26;;;;;;;150.68;81.47;;;;;;;18.72;51.55;93566.66;5069038;28;20051;-87
2022/09/20 09:47:52;;;;;;;134.57;76.50;;;;;;;18.71;51.36;93568.63;5098532;28;20059;-88
2022/09/20 09:50:25;;;;;;;146.65;77.78;;;;;;;18.69;51.22;93571.16;5052230;27;20032;-87
2022/09/20 09:53:02;;;;;;;125.78;72.30;;;;;;;18.69;51.55;93595.78;5050132;28;20041;-87
2022/09/20 09:55:36;;;;;;;124.75;71.28;;;;;;;18.71;51.45;93620.69;5069189;28;20038;-87
2022/09/20 09:58:06;;;;;;;128.45;70.30;;;;;;;18.72;51.62;93611.22;5045025;28;20045;-87
2022/09/20 10:00:34;;;;;;;127.28;67.00;;;;;;;18.70;51.62;93612.97;5065303;28;20047;-87
2022/09/20 10:03:27;;;;;;;138.75;70.05;;;;;;;18.67;51.56;93606.50;5064250;28;20395;-87
2022/09/20 10:06:17;;;;;;;124.53;64.43;;;;;;;18.68;51.80;93610.00;5059824;28;20077;-88
2022/09/20 10:09:00;;;;;;;113.13;62.97;;;;;;;18.69;51.72;93606.00;5072061;28;20515;-87
2022/09/20 10:11:29;;;;;;;123.15;65.40;;;;;;;18.71;51.51;93598.03;5062716;28;20534;-87
2022/09/20 10:14:25;;;;;;;104.03;59.85;;;;;;;18.67;51.54;93595.56;5067173;28;20033;-86
2022/09/20 10:16:53;;;;;;;117.45;55.80;;;;;;;18.70;51.61;93586.31;5071026;28;20033;-86
2022/09/20 10:19:25;;;;;;;97.03;55.63;;;;;;;18.68;51.58;93582.59;5068582;28;20089;-89
2022/09/20 10:22:07;;;;;;;97.93;58.33;;;;;;;18.67;51.91;93589.34;5082485;28;20047;-84
2022/09/20 10:25:00;;;;;;;92.90;53.33;;;;;;;18.66;51.61;93576.88;5056262;28;20080;-86
2022/09/20 10:27:48;;;;;;;89.57;52.80;;;;;;;18.67;51.33;93579.13;5063028;28;20045;-87
2022/09/20 10:30:16;;;;;;;89.40;50.58;;;;;;;18.68;51.38;93575.13;5067531;28;20127;-86
2022/09/20 10:32:42;;;;;;;84.28;34.45;;;;;;;18.68;48.93;93577.13;5050502;28;20047;-86
2022/09/20 10:35:19;;;;;;;105.05;36.97;;;;;;;18.63;49.52;93569.69;5050824;28;20033;-87
2022/09/20 10:38:22;;;;;;;75.72;33.47;;;;;;;18.62;49.36;93565.50;5050402;28;20116;-88
2022/09/20 10:44:09;;;;;;;73.75;37.55;;;;;;;18.63;49.46;93551.25;5086497;27;20089;-88
2022/09/20 10:46:51;;;;;;;72.93;38.25;;;;;;;18.64;49.42;93555.50;5069423;28;20682;-86
2022/09/20 10:49:27;;;;;;;72.88;38.30;;;;;;;18.66;50.63;93552.25;5084935;28;20478;-85
2022/09/20 10:52:04;;;;;;;75.47;37.53;;;;;;;18.68;50.78;93553.22;5085269;28;20138;-87
2022/09/20 10:54:46;;;;;;;72.50;41.78;;;;;;;18.68;50.83;93550.50;5072638;28;20036;-86
2022/09/20 10:57:44;;;;;;;65.82;40.00;;;;;;;18.68;50.66;93553.22;5058799;28;20047;-86
2022/09/20 11:00:31;;;;;;;64.15;36.25;;;;;;;18.68;50.66;93561.44;5086918;28;20129;-86
2022/09/20 11:03:06;;;;;;;137.32;42.88;;;;;;;18.63;49.78;93554.00;5087030;28;20032;-86
2022/09/20 11:05:40;;;;;;;122.45;38.40;;;;;;;18.66;49.42;93566.69;5084153;28;20039;-87
2022/09/20 11:08:17;;;;;;;78.30;28.08;;;;;;;18.60;48.86;93560.53;5088700;28;20495;-87
2022/09/20 11:10:52;;;;;;;152.70;54.88;;;;;;;18.57;48.75;93558.78;5054775;28;20055;-85
2022/09/20 11:13:33;;;;;;;116.32;40.40;;;;;;;18.55;48.71;93564.00;5073718;28;20032;-87
2022/09/20 11:16:09;;;;;;;;;;;;;;;18.58;48.48;93564.97;5067774;28;20483;-84
2022/09/20 11:18:39;;;;;;;67.25;24.00;;;;;;;18.45;47.61;93568.28;5035726;28;19920;-85
2022/09/20 11:21:16;;;;;;;114.07;45.15;;;;;;;18.50;48.36;93559.31;5064038;28;20036;-85
2022/09/20 11:23:44;;;;;;;109.82;49.05;;;;;;;18.50;48.66;93560.03;5030997;28;20052;-85
2022/09/20 11:26:12;;;;;;;97.35;43.47;;;;;;;18.52;48.67;93562.28;5052024;28;20041;-85
2022/09/20 11:28:42;;;;;;;141.95;65.05;;;;;;;18.57;48.89;93558.03;5049964;28;20033;-85
2022/09/20 11:31:11;;;;;;;176.88;77.63;;;;;;;18.58;48.99;93564.97;5030366;28;20052;-86
2022/09/20 11:33:43;;;;;;;179.02;75.95;;;;;;;18.59;49.23;93569.22;5066539;28;20045;-88
2022/09/20 11:36:13;;;;;;;190.55;85.60;;;;;;;18.61;49.39;93564.00;5018535;28;20041;-85
2022/09/20 11:38:59;;;;;;;210.00;89.03;;;;;;;18.63;49.32;93559.47;5043229;28;20048;-85
2022/09/20 11:41:27;;;;;;;205.10;90.60;;;;;;;18.66;49.63;93563.19;5036531;28;20709;-86
2022/09/20 11:43:53;;;;;;;193.93;93.78;;;;;;;18.66;49.54;93560.47;5044273;28;20036;-86
2022/09/20 11:46:25;;;;;;;203.43;91.95;;;;;;;18.63;49.67;93562.22;5051176;28;20077;-86
2022/09/20 11:49:02;;;;;;;195.80;84.43;;;;;;;18.65;49.30;93556.97;5083013;28;20132;-85
2022/09/20 11:51:48;;;;;;;196.40;86.75;;;;;;;18.66;49.43;93558.47;5058890;28;20040;-86
2022/09/20 11:54:42;;;;;;;228.75;97.07;;;;;;;18.65;49.49;93562.47;5087970;28;20096;-87
2022/09/20 11:57:11;;;;;;;232.95;105.65;;;;;;;18.69;49.32;93554.72;5085166;28;20095;-87
2022/09/20 11:59:39;;;;;;;241.23;111.18;;;;;;;18.68;49.32;93555.97;5026890;28;20800;-86
2022/09/20 12:02:17;;;;;;;246.38;128.07;;;;;;;18.68;50.07;93553.22;5057879;28;20075;-86
2022/09/20 12:04:44;;;;;;;221.63;122.93;;;;;;;18.68;49.82;93547.00;5048787;28;20555;-88
2022/09/20 12:07:18;;;;;;;228.55;118.50;;;;;;;18.69;49.81;93556.72;5065343;28;20079;-87
2022/09/20 12:09:50;;;;;;;230.52;119.82;;;;;;;18.71;49.78;93546.75;5053218;28;20040;-86